Time;durP1;ratioP1;P1;durP2;ratioP2;P2;SDS_P1;SDS_P2;PMS_P1;PMS_P2;Temp;Humidity;BMP_temperature;BMP_pressure;BME280_temperature;BME280_humidity;BME280_pressure;Samples;Min_cycle;Max_cycle;Signal;HPM_P1;HPM_P2
2023/08/28 00:00:58;;;;;;;1.90;1.80;;;16.60;99.90;;;;;;5052827;28;20659;-56
2023/08/28 00:03:24;;;;;;;2.10;2.00;;;16.60;99.90;;;;;;5070421;28;20630;-55
2023/08/28 00:05:49;;;;;;;1.97;1.50;;;16.60;99.90;;;;;;5070825;28;21204;-56
2023/08/28 00:08:15;;;;;;;1.97;1.87;;;16.40;99.90;;;;;;5053863;28;20197;-56
2023/08/28 00:10:40;;;;;;;1.73;1.60;;;16.60;99.90;;;;;;5048623;28;20198;-55
2023/08/28 00:13:06;;;;;;;1.80;1.70;;;16.40;99.90;;;;;;5049803;28;20197;-56
2023/08/28 00:15:31;;;;;;;1.73;1.63;;;16.30;99.90;;;;;;5070946;28;20282;-55
2023/08/28 00:17:57;;;;;;;2.40;1.77;;;16.20;99.90;;;;;;5068313;28;20210;-57
2023/08/28 00:20:23;;;;;;;1.17;1.17;;;16.10;99.90;;;;;;5073681;28;20679;-56
2023/08/28 00:22:49;;;;;;;3.50;2.00;;;16.00;99.90;;;;;;5071719;28;20197;-55
2023/08/28 00:25:14;;;;;;;2.30;1.80;;;15.90;99.90;;;;;;5053636;28;20667;-56
2023/08/28 00:27:40;;;;;;;1.77;1.60;;;16.00;99.90;;;;;;5067718;28;20205;-56
2023/08/28 00:30:07;;;;;;;1.30;1.20;;;15.90;99.90;;;;;;5069584;28;20787;-55
2023/08/28 00:32:34;;;;;;;1.73;1.63;;;15.90;99.90;;;;;;5069853;28;20202;-55
2023/08/28 00:34:59;;;;;;;1.83;1.73;;;15.80;99.90;;;;;;5069312;28;20347;-56
2023/08/28 00:37:24;;;;;;;1.50;1.40;;;15.70;99.90;;;;;;5073336;28;20954;-55
2023/08/28 00:39:50;;;;;;;2.97;1.70;;;15.50;99.90;;;;;;5071635;28;20264;-56
2023/08/28 00:42:15;;;;;;;1.60;1.50;;;15.70;99.90;;;;;;5044819;28;20209;-56
2023/08/28 00:44:41;;;;;;;1.30;1.20;;;15.70;99.90;;;;;;5064150;28;20537;-55
2023/08/28 00:47:10;;;;;;;2.00;1.57;;;15.50;99.90;;;;;;5051333;28;20665;-55
2023/08/28 00:49:36;;;;;;;1.30;1.20;;;15.40;99.90;;;;;;5069623;28;20234;-55
2023/08/28 00:52:02;;;;;;;1.50;1.40;;;15.30;99.90;;;;;;5035751;28;1020890;-56
2023/08/28 00:54:28;;;;;;;1.93;1.77;;;15.30;99.90;;;;;;5072070;28;20189;-62
2023/08/28 00:56:54;;;;;;;2.33;1.80;;;15.30;99.90;;;;;;5074179;28;20608;-66
2023/08/28 00:59:20;;;;;;;3.23;1.50;;;15.40;99.90;;;;;;5066257;28;20194;-63
2023/08/28 01:01:46;;;;;;;1.57;1.47;;;15.30;99.90;;;;;;5070662;28;20258;-59
2023/08/28 01:04:11;;;;;;;1.93;1.83;;;15.30;99.90;;;;;;5051168;28;20232;-58
2023/08/28 01:06:52;;;;;;;1.67;1.57;;;15.30;99.90;;;;;;5071789;28;20667;-65
2023/08/28 01:09:24;;;;;;;2.80;1.87;;;15.40;99.90;;;;;;5067793;28;20220;-56
2023/08/28 01:12:11;;;;;;;1.50;1.40;;;15.60;99.90;;;;;;5071171;28;20428;-55
2023/08/28 01:14:58;;;;;;;1.40;1.37;;;15.50;99.90;;;;;;5068956;28;20213;-55
2023/08/28 01:17:24;;;;;;;3.37;1.40;;;15.60;99.90;;;;;;5053600;28;20220;-55
2023/08/28 01:19:51;;;;;;;1.60;1.50;;;15.80;99.90;;;;;;5068923;28;20202;-55
2023/08/28 01:22:22;;;;;;;1.67;1.57;;;15.80;99.90;;;;;;5053434;28;20193;-55
2023/08/28 01:24:53;;;;;;;1.67;1.57;;;15.80;99.90;;;;;;5071856;28;21050;-55
2023/08/28 01:27:21;;;;;;;2.67;1.80;;;15.80;99.90;;;;;;5069339;28;20757;-55
2023/08/28 01:30:07;;;;;;;5.20;1.60;;;15.80;99.90;;;;;;5068370;28;20202;-55
2023/08/28 01:32:33;;;;;;;1.47;1.37;;;15.80;99.90;;;;;;5073867;28;20605;-55
2023/08/28 01:35:07;;;;;;;2.83;1.70;;;15.60;99.90;;;;;;5070475;28;20684;-55
2023/08/28 01:37:44;;;;;;;1.70;1.60;;;15.60;99.90;;;;;;5067190;28;20492;-55
2023/08/28 01:40:14;;;;;;;5.23;1.83;;;15.50;99.90;;;;;;5041265;28;20225;-55
2023/08/28 01:42:40;;;;;;;2.13;1.70;;;15.50;99.90;;;;;;5068464;28;20198;-55
2023/08/28 01:45:07;;;;;;;2.77;1.50;;;15.20;99.90;;;;;;5067368;28;20197;-55
2023/08/28 01:47:33;;;;;;;4.67;1.60;;;15.10;99.90;;;;;;5066354;28;20267;-56
2023/08/28 01:49:58;;;;;;;4.03;1.67;;;15.00;99.90;;;;;;5067895;28;20699;-59
2023/08/28 01:52:24;;;;;;;1.70;1.60;;;15.10;99.90;;;;;;5068846;28;20202;-59
2023/08/28 01:54:49;;;;;;;2.10;1.50;;;15.10;99.90;;;;;;5067513;28;20617;-56
2023/08/28 01:57:15;;;;;;;4.17;1.80;;;15.00;99.90;;;;;;5071417;28;20209;-56
2023/08/28 01:59:41;;;;;;;2.90;1.50;;;15.20;99.90;;;;;;5059019;28;20229;-55
2023/08/28 02:02:06;;;;;;;1.77;1.67;;;15.30;99.90;;;;;;5075618;28;20714;-55
2023/08/28 02:04:31;;;;;;;1.50;1.40;;;15.40;99.90;;;;;;5075614;28;21097;-55
2023/08/28 02:06:57;;;;;;;2.13;1.47;;;15.40;99.90;;;;;;5074930;28;20205;-55
2023/08/28 02:09:22;;;;;;;3.63;1.50;;;15.30;99.90;;;;;;5074418;28;21220;-55
2023/08/28 02:11:49;;;;;;;2.40;1.50;;;15.30;99.90;;;;;;5075184;28;20205;-55
2023/08/28 02:14:15;;;;;;;6.83;1.70;;;15.10;99.90;;;;;;5073311;28;20201;-55
2023/08/28 02:16:40;;;;;;;1.90;1.60;;;14.90;99.90;;;;;;5057522;28;20206;-54
2023/08/28 02:19:06;;;;;;;3.27;1.67;;;15.00;99.90;;;;;;5074200;28;20271;-55
2023/08/28 02:21:31;;;;;;;2.10;1.37;;;15.00;99.90;;;;;;5075245;28;20509;-55
2023/08/28 02:23:57;;;;;;;1.67;1.57;;;14.80;99.90;;;;;;5074705;28;20693;-55
2023/08/28 02:26:24;;;;;;;4.40;1.87;;;14.90;99.90;;;;;;5074752;28;20259;-56
2023/08/28 02:28:49;;;;;;;1.70;1.60;;;14.80;99.90;;;;;;5048657;28;20201;-56
2023/08/28 02:31:15;;;;;;;1.77;1.67;;;14.80;99.90;;;;;;5077209;28;20193;-55
2023/08/28 02:33:40;;;;;;;1.47;1.37;;;14.90;99.90;;;;;;5073760;28;20202;-55
2023/08/28 02:36:06;;;;;;;1.50;1.43;;;14.80;99.90;;;;;;5055845;28;20228;-57
2023/08/28 02:38:31;;;;;;;2.13;1.97;;;14.60;99.90;;;;;;5073867;28;20251;-55
2023/08/28 02:41:09;;;;;;;2.17;1.60;;;14.40;99.90;;;;;;5056566;28;20250;-56
2023/08/28 02:43:35;;;;;;;2.53;1.70;;;14.40;99.90;;;;;;5072655;28;20232;-55
2023/08/28 02:46:02;;;;;;;2.00;1.90;;;14.50;99.90;;;;;;5072123;28;20193;-56
2023/08/28 02:48:27;;;;;;;2.90;1.90;;;14.60;99.90;;;;;;5071513;28;20193;-55
2023/08/28 02:50:54;;;;;;;2.37;1.60;;;14.50;99.90;;;;;;5072768;28;20356;-55
2023/08/28 02:53:20;;;;;;;1.90;1.80;;;14.40;99.90;;;;;;5054532;28;20205;-56
2023/08/28 02:56:09;;;;;;;3.60;2.03;;;14.50;99.90;;;;;;5070171;28;20586;-55
2023/08/28 02:58:34;;;;;;;1.87;1.70;;;14.50;99.90;;;;;;5074018;28;20719;-55
2023/08/28 03:01:00;;;;;;;2.03;1.73;;;14.40;99.90;;;;;;5071004;28;20262;-55
2023/08/28 03:03:25;;;;;;;2.20;1.80;;;14.30;99.90;;;;;;5073983;28;20208;-56
2023/08/28 03:05:51;;;;;;;2.67;1.90;;;14.20;99.90;;;;;;5073791;28;20239;-56
2023/08/28 03:08:16;;;;;;;1.57;1.47;;;14.20;99.90;;;;;;5050890;28;20670;-56
2023/08/28 03:10:42;;;;;;;2.10;1.77;;;14.20;99.90;;;;;;5055647;28;20390;-55
2023/08/28 03:13:07;;;;;;;1.87;1.77;;;14.20;99.90;;;;;;5055584;28;20540;-62
2023/08/28 03:15:33;;;;;;;3.77;1.87;;;14.20;99.90;;;;;;5074251;28;20255;-59
2023/08/28 03:17:59;;;;;;;2.33;2.13;;;14.20;99.90;;;;;;5074048;28;20856;-59
2023/08/28 03:20:24;;;;;;;4.10;2.20;;;14.20;99.90;;;;;;5058115;28;20679;-55
2023/08/28 03:22:50;;;;;;;3.33;2.75;;;14.30;99.90;;;;;;5073331;28;20424;-55
2023/08/28 03:25:15;;;;;;;3.10;1.70;;;14.40;99.90;;;;;;5073201;28;20209;-55
2023/08/28 03:27:41;;;;;;;2.53;2.30;;;14.30;99.90;;;;;;5071109;28;20575;-55
2023/08/28 03:30:07;;;;;;;2.37;2.20;;;14.10;99.90;;;;;;5069087;28;20197;-56
2023/08/28 03:32:33;;;;;;;2.37;2.03;;;14.00;99.90;;;;;;5074310;28;20194;-58
2023/08/28 03:34:58;;;;;;;2.40;2.20;;;13.90;99.90;;;;;;5053459;28;20201;-56
2023/08/28 03:37:24;;;;;;;2.27;2.07;;;13.90;99.90;;;;;;5073214;28;20213;-56
2023/08/28 03:39:49;;;;;;;2.60;2.40;;;14.00;99.90;;;;;;5072984;28;20201;-56
2023/08/28 03:42:15;;;;;;;3.30;1.80;;;13.90;99.90;;;;;;5073205;28;20213;-58
2023/08/28 03:44:41;;;;;;;3.53;2.00;;;13.80;99.90;;;;;;5069619;28;20244;-56
2023/08/28 03:47:06;;;;;;;5.77;2.40;;;13.90;99.90;;;;;;5074971;28;20225;-56
2023/08/28 03:49:32;;;;;;;3.47;2.40;;;13.90;99.90;;;;;;5070290;28;20200;-56
2023/08/28 03:51:59;;;;;;;4.97;2.53;;;13.90;99.90;;;;;;5058348;28;20240;-56
2023/08/28 03:54:25;;;;;;;2.67;2.47;;;13.90;99.90;;;;;;5071505;28;20604;-56
2023/08/28 03:56:51;;;;;;;4.03;2.80;;;13.80;99.90;;;;;;5073550;28;20204;-57
2023/08/28 03:59:16;;;;;;;5.03;3.07;;;13.80;99.90;;;;;;5071304;28;20213;-56
2023/08/28 04:01:42;;;;;;;2.90;2.70;;;13.90;99.90;;;;;;5073205;28;20232;-56
2023/08/28 04:04:08;;;;;;;2.60;2.40;;;13.70;99.90;;;;;;5072128;28;20197;-56
2023/08/28 04:06:33;;;;;;;4.03;2.93;;;13.60;99.90;;;;;;5071224;28;20220;-56
2023/08/28 04:08:59;;;;;;;4.67;2.93;;;13.70;99.90;;;;;;5072942;28;20212;-55
2023/08/28 04:11:25;;;;;;;3.53;3.03;;;13.70;99.90;;;;;;5071207;28;20714;-55
2023/08/28 04:13:51;;;;;;;2.67;2.30;;;13.70;99.90;;;;;;5070422;28;20237;-56
2023/08/28 04:16:18;;;;;;;3.00;2.70;;;13.80;99.90;;;;;;5067589;28;20193;-61
2023/08/28 04:18:44;;;;;;;3.00;2.80;;;13.80;99.90;;;;;;5066906;28;20266;-61
2023/08/28 04:21:09;;;;;;;5.43;3.37;;;13.90;99.90;;;;;;5072259;28;20193;-63
2023/08/28 04:23:35;;;;;;;3.90;3.00;;;13.80;99.90;;;;;;5071766;28;20417;-56
2023/08/28 04:26:00;;;;;;;3.20;2.97;;;13.80;99.90;;;;;;5070722;28;20733;-56
2023/08/28 04:28:27;;;;;;;4.70;3.03;;;13.80;99.90;;;;;;5071503;28;20734;-56
2023/08/28 04:30:53;;;;;;;3.90;3.50;;;13.60;99.90;;;;;;5072483;28;20625;-56
2023/08/28 04:33:19;;;;;;;5.73;3.47;;;13.70;99.90;;;;;;5072606;28;20193;-56
2023/08/28 04:35:44;;;;;;;3.23;2.67;;;13.60;99.90;;;;;;5071478;28;20280;-56
2023/08/28 04:38:10;;;;;;;3.67;3.17;;;13.80;99.90;;;;;;5074116;28;20267;-56
2023/08/28 04:40:35;;;;;;;5.17;3.43;;;13.80;99.90;;;;;;5072656;28;20201;-56
2023/08/28 04:43:01;;;;;;;4.73;3.47;;;13.80;99.90;;;;;;5072022;28;20671;-56
2023/08/28 04:45:26;;;;;;;3.73;3.43;;;13.80;99.90;;;;;;5068748;28;20234;-56
2023/08/28 04:47:52;;;;;;;4.07;3.07;;;13.90;99.90;;;;;;5070072;28;20220;-56
2023/08/28 04:50:17;;;;;;;5.97;3.30;;;13.80;99.90;;;;;;5066019;28;20212;-56
2023/08/28 04:52:43;;;;;;;4.57;3.80;;;13.80;99.90;;;;;;5081148;28;20791;-56
2023/08/28 04:55:08;;;;;;;4.20;3.80;;;13.70;99.90;;;;;;5094712;28;20197;-56
2023/08/28 04:57:34;;;;;;;4.10;3.40;;;13.80;99.90;;;;;;5090418;27;20217;-56
2023/08/28 04:59:59;;;;;;;3.80;3.50;;;13.90;99.90;;;;;;5076255;28;20297;-55
2023/08/28 05:02:25;;;;;;;4.30;3.90;;;14.10;99.90;;;;;;5090528;28;20200;-56
2023/08/28 05:04:51;;;;;;;6.97;4.40;;;14.00;99.90;;;;;;5085556;28;20208;-56
2023/08/28 05:07:16;;;;;;;4.27;3.87;;;14.00;99.90;;;;;;5097286;28;20181;-55
2023/08/28 05:09:41;;;;;;;5.53;3.50;;;14.00;99.90;;;;;;5092032;28;20197;-56
2023/08/28 05:12:07;;;;;;;3.73;3.43;;;14.10;99.90;;;;;;5092290;28;20211;-56
2023/08/28 05:14:33;;;;;;;4.40;4.00;;;14.00;99.90;;;;;;5090210;28;20200;-56
2023/08/28 05:16:58;;;;;;;5.00;3.93;;;13.90;99.90;;;;;;5065490;28;20669;-56
2023/08/28 05:19:24;;;;;;;4.73;3.90;;;13.90;99.90;;;;;;5088711;28;20213;-56
2023/08/28 05:21:49;;;;;;;4.13;3.73;;;13.80;99.90;;;;;;5073476;28;20632;-55
2023/08/28 05:24:15;;;;;;;5.03;4.07;;;13.80;99.90;;;;;;5091891;28;20212;-55
2023/08/28 05:26:40;;;;;;;5.03;4.17;;;13.90;99.90;;;;;;5097096;28;20204;-55
2023/08/28 05:29:06;;;;;;;4.50;3.47;;;14.00;99.90;;;;;;5089387;28;20197;-56
2023/08/28 05:31:31;;;;;;;5.60;4.80;;;14.10;99.90;;;;;;5088528;28;20889;-55
2023/08/28 05:33:57;;;;;;;5.33;3.43;;;14.10;99.90;;;;;;5070402;28;20220;-57
2023/08/28 05:36:22;;;;;;;4.50;4.03;;;14.20;99.90;;;;;;5079501;28;20189;-56
2023/08/28 05:38:48;;;;;;;5.63;4.00;;;14.20;99.90;;;;;;5072185;28;20762;-56
2023/08/28 05:41:13;;;;;;;6.43;4.00;;;14.30;99.90;;;;;;5095081;28;20318;-56
2023/08/28 05:43:39;;;;;;;11.77;3.67;;;14.50;99.90;;;;;;5074878;28;20201;-57
2023/08/28 05:46:04;;;;;;;3.83;3.50;;;14.60;99.90;;;;;;5091344;28;20742;-56
2023/08/28 05:48:30;;;;;;;4.70;3.97;;;14.60;99.90;;;;;;5073596;28;20224;-55
2023/08/28 05:50:55;;;;;;;4.73;3.37;;;14.70;99.90;;;;;;5081118;28;20200;-55
2023/08/28 05:53:21;;;;;;;3.77;3.47;;;14.90;99.90;;;;;;5058133;28;20924;-55
2023/08/28 05:55:47;;;;;;;3.87;3.37;;;14.90;99.90;;;;;;5071919;28;20286;-55
2023/08/28 05:58:12;;;;;;;9.90;4.10;;;14.90;99.90;;;;;;5076063;28;20262;-55
2023/08/28 06:00:38;;;;;;;5.77;3.43;;;14.80;99.90;;;;;;5075802;28;20201;-55
2023/08/28 06:03:04;;;;;;;4.13;3.37;;;14.80;99.90;;;;;;5075523;28;20225;-54
2023/08/28 06:05:31;;;;;;;4.47;3.60;;;15.00;99.90;;;;;;5049468;28;20190;-54
2023/08/28 06:07:56;;;;;;;5.87;3.67;;;15.10;99.90;;;;;;5075011;28;20223;-54
2023/08/28 06:10:22;;;;;;;5.63;3.23;;;15.20;99.90;;;;;;5075158;28;20670;-54
2023/08/28 06:12:48;;;;;;;5.70;4.33;;;15.10;99.90;;;;;;5071509;28;20247;-55
2023/08/28 06:15:18;;;;;;;3.70;3.20;;;15.10;99.90;;;;;;5056459;28;20295;-55
2023/08/28 06:17:45;;;;;;;4.93;3.40;;;15.20;99.90;;;;;;5075201;28;20221;-54
2023/08/28 06:20:11;;;;;;;3.10;2.80;;;15.20;99.90;;;;;;5075229;28;20197;-55
2023/08/28 06:22:37;;;;;;;3.40;3.10;;;15.20;99.90;;;;;;5058760;28;20194;-56
2023/08/28 06:25:04;;;;;;;3.50;3.20;;;15.30;99.90;;;;;;5072564;28;20251;-55
2023/08/28 06:27:30;;;;;;;3.50;3.17;;;15.30;99.90;;;;;;5075052;28;20276;-54
2023/08/28 06:29:56;;;;;;;6.93;3.80;;;15.20;99.90;;;;;;5056428;28;20244;-54
2023/08/28 06:32:21;;;;;;;4.03;3.70;;;15.30;99.90;;;;;;5074710;28;20626;-55
2023/08/28 06:34:47;;;;;;;4.93;3.20;;;15.30;99.90;;;;;;5074351;28;20331;-55
2023/08/28 06:37:12;;;;;;;4.60;3.22;;;15.30;99.90;;;;;;5074231;28;20505;-56
2023/08/28 06:39:38;;;;;;;4.33;3.97;;;15.30;99.90;;;;;;5056288;28;20202;-57
2023/08/28 06:42:03;;;;;;;4.33;3.93;;;15.40;99.90;;;;;;5071679;28;20282;-56
2023/08/28 06:44:29;;;;;;;3.20;2.73;;;15.50;99.90;;;;;;5049923;28;20310;-61
2023/08/28 06:46:54;;;;;;;4.07;3.23;;;15.50;99.90;;;;;;5051681;28;20219;-56
2023/08/28 06:49:20;;;;;;;4.80;3.53;;;15.50;99.90;;;;;;5067833;28;20206;-58
2023/08/28 06:51:46;;;;;;;3.27;2.80;;;15.60;99.90;;;;;;5068955;28;20229;-58
2023/08/28 06:54:12;;;;;;;4.37;3.03;;;15.70;99.90;;;;;;5072765;28;20755;-55
2023/08/28 06:56:37;;;;;;;4.77;3.03;;;15.80;99.90;;;;;;5068364;28;20416;-57
2023/08/28 06:59:03;;;;;;;3.97;3.17;;;15.80;99.90;;;;;;5052937;28;20275;-56
2023/08/28 07:01:28;;;;;;;5.20;2.70;;;15.80;99.90;;;;;;5055765;28;20197;-57
2023/08/28 07:03:54;;;;;;;2.83;2.40;;;15.80;99.90;;;;;;5074365;28;20703;-54
2023/08/28 07:06:19;;;;;;;3.00;2.63;;;15.90;99.90;;;;;;5071735;28;20279;-59
2023/08/28 07:08:45;;;;;;;3.93;2.30;;;16.00;99.90;;;;;;5052387;28;20273;-57
2023/08/28 07:11:10;;;;;;;4.53;2.30;;;16.00;99.90;;;;;;5070341;28;20190;-55
2023/08/28 07:13:36;;;;;;;3.53;2.13;;;16.10;99.90;;;;;;5077624;28;20668;-55
2023/08/28 07:16:02;;;;;;;1.80;1.70;;;16.30;99.90;;;;;;5070453;28;20204;-55
2023/08/28 07:18:29;;;;;;;2.43;2.20;;;16.40;99.90;;;;;;5072553;28;20209;-54
2023/08/28 07:20:54;;;;;;;3.87;2.50;;;16.40;99.90;;;;;;5074082;28;20194;-55
2023/08/28 07:23:21;;;;;;;2.90;2.40;;;16.40;99.90;;;;;;5073839;28;20317;-56
2023/08/28 07:25:47;;;;;;;7.20;2.20;;;16.40;99.90;;;;;;5069413;28;20291;-56
2023/08/28 07:28:13;;;;;;;3.50;2.13;;;16.40;99.90;;;;;;5067258;28;21109;-56
2023/08/28 07:30:39;;;;;;;3.67;1.93;;;16.40;99.90;;;;;;5067825;28;20208;-57
2023/08/28 07:33:05;;;;;;;2.63;1.70;;;16.40;99.90;;;;;;5068649;28;20599;-60
2023/08/28 07:35:34;;;;;;;3.30;1.60;;;16.40;99.90;;;;;;5053387;28;20209;-60
2023/08/28 07:38:03;;;;;;;3.23;1.97;;;16.30;99.90;;;;;;5074246;28;20205;-61
2023/08/28 07:40:32;;;;;;;3.70;1.77;;;16.40;99.90;;;;;;5073416;28;20817;-61
2023/08/28 07:42:58;;;;;;;3.83;2.13;;;16.50;99.90;;;;;;5073297;28;20228;-61
2023/08/28 07:45:24;;;;;;;5.63;1.80;;;16.60;99.90;;;;;;5068313;28;20200;-62
2023/08/28 07:47:50;;;;;;;3.38;2.15;;;16.60;99.90;;;;;;5053048;28;20506;-63
2023/08/28 07:50:15;;;;;;;2.63;1.60;;;16.60;99.90;;;;;;5046779;28;20200;-60
2023/08/28 07:52:41;;;;;;;2.53;2.00;;;16.60;99.90;;;;;;5052849;28;20252;-57
2023/08/28 07:55:07;;;;;;;4.80;2.77;;;16.60;99.90;;;;;;5072626;28;20197;-62
2023/08/28 07:57:34;;;;;;;4.03;2.07;;;16.60;99.90;;;;;;5072565;28;20213;-60
2023/08/28 08:00:00;;;;;;;3.27;2.10;;;16.50;99.90;;;;;;5069051;28;20197;-62
2023/08/28 08:02:26;;;;;;;3.67;2.47;;;16.70;99.90;;;;;;5065879;28;20244;-60
2023/08/28 08:04:51;;;;;;;1.87;1.77;;;16.80;99.90;;;;;;5066471;28;20774;-57
2023/08/28 08:07:17;;;;;;;2.77;1.50;;;16.70;99.90;;;;;;5052237;28;20692;-61
2023/08/28 08:09:42;;;;;;;4.13;2.33;;;16.50;99.90;;;;;;5070624;28;20210;-57
2023/08/28 08:12:08;;;;;;;4.27;2.77;;;16.50;99.90;;;;;;5072651;28;20615;-57
2023/08/28 08:14:34;;;;;;;7.60;2.53;;;16.40;99.90;;;;;;5071342;28;20201;-66
2023/08/28 08:16:59;;;;;;;5.57;1.80;;;16.30;99.90;;;;;;5071364;28;20197;-66
2023/08/28 08:19:25;;;;;;;2.60;2.40;;;16.30;99.90;;;;;;5071624;28;20913;-68
2023/08/28 08:21:50;;;;;;;4.70;2.63;;;16.10;99.90;;;;;;5053908;28;20202;-57
2023/08/28 08:24:16;;;;;;;2.33;1.87;;;16.20;99.90;;;;;;5065514;28;20201;-67
2023/08/28 08:26:41;;;;;;;4.03;2.10;;;16.10;99.90;;;;;;5069392;28;20263;-69
2023/08/28 08:29:07;;;;;;;2.30;2.10;;;16.20;99.90;;;;;;5069016;28;20200;-61
2023/08/28 08:31:33;;;;;;;2.53;2.27;;;16.20;99.90;;;;;;5064493;28;20761;-59
2023/08/28 08:33:59;;;;;;;4.00;2.43;;;16.20;99.90;;;;;;5073016;28;20193;-61
2023/08/28 08:36:24;;;;;;;3.50;2.00;;;16.20;99.90;;;;;;5068213;28;20202;-67
2023/08/28 08:38:49;;;;;;;4.30;2.33;;;16.40;99.90;;;;;;5063261;28;20217;-62
2023/08/28 08:41:15;;;;;;;3.00;1.37;;;16.50;99.90;;;;;;5067932;28;20206;-63
2023/08/28 08:43:40;;;;;;;2.53;1.30;;;16.70;99.90;;;;;;5069751;28;20268;-60
2023/08/28 08:46:08;;;;;;;1.63;1.53;;;16.80;99.90;;;;;;5074752;28;20617;-61
2023/08/28 08:48:38;;;;;;;2.87;1.87;;;16.90;99.90;;;;;;5070312;28;20193;-60
2023/08/28 08:51:05;;;;;;;2.97;1.70;;;16.90;99.90;;;;;;5072414;28;20710;-60
2023/08/28 08:53:47;;;;;;;1.73;1.40;;;17.10;99.90;;;;;;5071855;28;20500;-60
2023/08/28 08:56:18;;;;;;;1.50;1.40;;;17.30;99.90;;;;;;5065458;28;20305;-60
2023/08/28 08:58:45;;;;;;;2.20;2.10;;;17.60;99.90;;;;;;5066616;28;20275;-61
2023/08/28 09:01:11;;;;;;;3.50;1.80;;;17.60;99.90;;;;;;5071339;28;20198;-66
2023/08/28 09:03:42;;;;;;;2.97;1.70;;;17.40;99.90;;;;;;5069771;28;20277;-60
2023/08/28 09:06:08;;;;;;;2.03;1.67;;;17.20;99.90;;;;;;5072192;28;20641;-56
2023/08/28 09:08:36;;;;;;;4.23;1.80;;;17.30;99.90;;;;;;5047191;28;20197;-57
2023/08/28 09:11:04;;;;;;;1.50;1.20;;;17.50;99.90;;;;;;5043482;28;20795;-57
2023/08/28 09:13:30;;;;;;;1.50;1.37;;;17.70;99.90;;;;;;5072047;28;20187;-57
2023/08/28 09:15:56;;;;;;;2.07;1.37;;;17.80;99.90;;;;;;5071450;28;20220;-63
2023/08/28 09:18:25;;;;;;;2.00;1.20;;;17.70;99.90;;;;;;5071166;28;20641;-61
2023/08/28 09:21:08;;;;;;;3.03;1.17;;;17.80;99.90;;;;;;5068644;28;20256;-63
2023/08/28 09:23:35;;;;;;;2.23;1.60;;;17.70;99.90;;;;;;5053222;28;20203;-61
2023/08/28 09:26:02;;;;;;;2.00;1.43;;;17.90;99.90;;;;;;5067037;28;20286;-57
2023/08/28 09:28:28;;;;;;;1.30;1.20;;;17.70;99.90;;;;;;5048734;28;20198;-57
2023/08/28 09:30:54;;;;;;;3.40;1.47;;;17.70;99.90;;;;;;5064055;28;20248;-60
2023/08/28 09:33:20;;;;;;;1.73;1.27;;;17.70;99.90;;;;;;5067826;28;20198;-61
2023/08/28 09:35:45;;;;;;;1.50;1.17;;;17.70;99.90;;;;;;5053051;28;20236;-61
2023/08/28 09:38:11;;;;;;;2.67;1.40;;;17.70;99.90;;;;;;5071637;28;20364;-60
2023/08/28 09:40:41;;;;;;;1.50;1.40;;;17.80;99.90;;;;;;5071570;28;20737;-61
2023/08/28 09:43:15;;;;;;;1.83;1.13;;;18.00;99.90;;;;;;5070834;28;20198;-60
2023/08/28 09:45:42;;;;;;;1.63;1.53;;;17.90;99.90;;;;;;5068100;28;20190;-61
2023/08/28 09:48:08;;;;;;;2.90;1.47;;;17.70;99.90;;;;;;5071204;28;20202;-60
2023/08/28 09:50:39;;;;;;;1.33;1.23;;;18.00;99.90;;;;;;5064665;28;20194;-72
2023/08/28 09:53:13;;;;;;;2.13;1.53;;;18.00;99.90;;;;;;5048099;28;20265;-56
2023/08/28 09:55:44;;;;;;;2.10;1.30;;;17.90;99.90;;;;;;5063458;28;20808;-64
2023/08/28 09:58:10;;;;;;;2.20;1.30;;;17.90;99.90;;;;;;5070599;28;20240;-64
2023/08/28 10:00:40;;;;;;;1.20;1.10;;;17.80;99.90;;;;;;5042964;28;20217;-60
2023/08/28 10:03:11;;;;;;;2.37;1.30;;;17.90;99.90;;;;;;5056677;28;20243;-62
2023/08/28 10:05:38;;;;;;;3.27;1.30;;;18.00;99.90;;;;;;5064862;28;20815;-60
2023/08/28 10:08:08;;;;;;;2.87;1.17;;;18.20;99.90;;;;;;5048486;28;20199;-59
2023/08/28 10:10:35;;;;;;;3.90;1.43;;;18.20;99.90;;;;;;5064519;28;20206;-61
2023/08/28 10:13:04;;;;;;;2.07;1.00;;;18.30;99.90;;;;;;5065214;28;20195;-61
2023/08/28 10:15:31;;;;;;;1.73;1.10;;;18.40;99.90;;;;;;5071076;28;20198;-64
2023/08/28 10:18:01;;;;;;;0.90;0.90;;;18.30;99.90;;;;;;5050411;28;20222;-61
2023/08/28 10:20:28;;;;;;;1.80;0.80;;;18.00;99.90;;;;;;5048944;28;20199;-57
2023/08/28 10:22:55;;;;;;;2.50;1.30;;;18.20;99.90;;;;;;5071692;28;20239;-57
2023/08/28 10:25:22;;;;;;;2.33;0.97;;;18.30;99.90;;;;;;5070705;28;20542;-57
2023/08/28 10:27:48;;;;;;;1.50;1.23;;;18.50;99.90;;;;;;5074871;28;20202;-57
2023/08/28 10:30:15;;;;;;;1.03;1.03;;;18.60;99.90;;;;;;5074483;28;20280;-57
2023/08/28 10:32:42;;;;;;;2.00;0.90;;;18.90;99.90;;;;;;5073187;28;20198;-58
2023/08/28 10:35:08;;;;;;;1.03;1.03;;;18.90;99.90;;;;;;5049390;28;20216;-58
2023/08/28 10:37:35;;;;;;;2.93;1.30;;;18.80;99.90;;;;;;5047541;28;20197;-63
2023/08/28 10:40:03;;;;;;;2.47;1.07;;;18.60;99.90;;;;;;5072817;28;20214;-56
2023/08/28 10:42:30;;;;;;;1.40;1.03;;;18.70;99.90;;;;;;5048806;28;20198;-61
2023/08/28 10:44:57;;;;;;;2.03;1.33;;;18.90;99.90;;;;;;5071510;28;20230;-61
2023/08/28 10:47:23;;;;;;;1.13;1.03;;;19.00;99.90;;;;;;5056632;28;20647;-66
2023/08/28 10:49:52;;;;;;;3.37;1.43;;;19.10;99.90;;;;;;5068000;28;20203;-58
2023/08/28 10:52:19;;;;;;;1.30;1.20;;;19.00;99.90;;;;;;5069022;28;20630;-57
2023/08/28 10:54:45;;;;;;;2.33;1.20;;;19.10;99.90;;;;;;5051774;28;20567;-58
2023/08/28 10:57:22;;;;;;;2.63;1.27;;;19.00;99.90;;;;;;5065965;28;20207;-63
2023/08/28 10:59:49;;;;;;;1.40;0.90;;;19.20;99.90;;;;;;5067568;28;20212;-61
2023/08/28 11:02:14;;;;;;;2.93;1.23;;;19.40;99.90;;;;;;5071387;28;20188;-62
2023/08/28 11:04:40;;;;;;;1.23;1.03;;;19.50;99.90;;;;;;5071660;28;20728;-61
2023/08/28 11:07:27;;;;;;;5.17;1.43;;;19.50;99.90;;;;;;5075660;28;20196;-61
2023/08/28 11:10:17;;;;;;;0.93;0.90;;;19.40;99.90;;;;;;5068471;28;20227;-62
2023/08/28 11:12:56;;;;;;;1.30;1.20;;;19.40;99.90;;;;;;5074866;28;20208;-63
2023/08/28 11:15:32;;;;;;;3.17;1.47;;;19.80;99.90;;;;;;5067303;28;20331;-61
2023/08/28 11:18:27;;;;;;;1.27;1.10;;;20.00;99.90;;;;;;5069043;28;20273;-60
2023/08/28 11:20:54;;;;;;;2.30;1.00;;;19.60;99.90;;;;;;5068826;28;20231;-56
2023/08/28 11:23:24;;;;;;;1.03;0.97;;;19.60;99.90;;;;;;5069050;28;20234;-61
2023/08/28 11:25:50;;;;;;;4.93;1.00;;;19.50;99.90;;;;;;5054781;28;20300;-59
2023/08/28 11:28:45;;;;;;;1.83;1.10;;;19.20;99.90;;;;;;5056580;28;20199;-55
2023/08/28 11:31:12;;;;;;;1.90;1.03;;;19.20;99.90;;;;;;5072480;28;20203;-60
2023/08/28 11:33:42;;;;;;;1.83;0.90;;;19.20;99.90;;;;;;5073641;28;21212;-60
2023/08/28 11:36:10;;;;;;;1.77;1.00;;;19.20;99.90;;;;;;5053136;28;21105;-59
2023/08/28 11:38:36;;;;;;;2.73;1.10;;;19.10;99.90;;;;;;5072388;28;20221;-64
2023/08/28 11:41:04;;;;;;;2.33;1.20;;;19.00;99.90;;;;;;5069350;28;20198;-57
2023/08/28 11:43:41;;;;;;;1.47;1.07;;;19.20;99.90;;;;;;5043428;28;20196;-59
2023/08/28 11:46:07;;;;;;;1.50;1.30;;;19.50;99.90;;;;;;5072409;28;20407;-58
2023/08/28 11:48:38;;;;;;;1.80;0.93;;;19.70;99.90;;;;;;5052993;28;20629;-57
2023/08/28 11:51:05;;;;;;;1.17;1.03;;;19.80;99.90;;;;;;5050451;28;20257;-64
2023/08/28 11:53:41;;;;;;;2.90;1.00;;;19.80;99.90;;;;;;5055139;28;20216;-71
2023/08/28 11:56:09;;;;;;;1.00;0.90;;;19.70;99.90;;;;;;5054991;28;20194;-61
2023/08/28 11:58:37;;;;;;;2.33;1.03;;;19.50;99.90;;;;;;5072001;28;20223;-62
2023/08/28 12:01:12;;;;;;;1.13;0.60;;;19.40;99.90;;;;;;5069375;28;20235;-65
2023/08/28 12:03:38;;;;;;;1.37;1.07;;;19.50;99.90;;;;;;5053286;28;20256;-63
2023/08/28 12:06:08;;;;;;;1.23;0.93;;;19.30;99.90;;;;;;5047254;28;20193;-58
2023/08/28 12:08:36;;;;;;;1.77;1.10;;;19.40;99.90;;;;;;5069712;28;20223;-57
2023/08/28 12:11:13;;;;;;;1.00;1.00;;;19.70;99.90;;;;;;5064242;28;20211;-64
2023/08/28 12:13:39;;;;;;;1.13;0.90;;;19.80;99.90;;;;;;5048637;28;20241;-60
2023/08/28 12:16:17;;;;;;;3.97;1.00;;;19.80;99.90;;;;;;5051940;28;20203;-60
2023/08/28 12:18:53;;;;;;;1.93;0.70;;;19.80;99.90;;;;;;5044965;28;20335;-60
2023/08/28 12:21:32;;;;;;;1.37;0.90;;;20.30;99.90;;;;;;5048083;28;20234;-59
2023/08/28 12:23:58;;;;;;;2.37;1.03;;;20.30;99.90;;;;;;5051544;28;20806;-59
2023/08/28 12:26:24;;;;;;;2.90;1.00;;;20.40;99.90;;;;;;5067694;28;20198;-66
2023/08/28 12:28:51;;;;;;;2.50;1.10;;;20.10;99.90;;;;;;5074050;28;20402;-60
2023/08/28 12:31:34;;;;;;;1.17;0.83;;;20.00;99.90;;;;;;5049867;28;20203;-60
2023/08/28 12:34:10;;;;;;;3.70;1.23;;;20.20;99.90;;;;;;5043428;28;20216;-60
2023/08/28 12:36:37;;;;;;;4.17;1.20;;;20.20;99.90;;;;;;5049073;28;20212;-65
2023/08/28 12:39:04;;;;;;;2.07;1.27;;;20.30;99.90;;;;;;5050889;28;20202;-61
2023/08/28 12:41:34;;;;;;;1.20;1.00;;;20.40;99.90;;;;;;5070805;28;20698;-61
2023/08/28 12:44:00;;;;;;;2.07;1.00;;;20.60;99.90;;;;;;5069193;28;20238;-61
2023/08/28 12:46:26;;;;;;;2.47;1.30;;;20.40;99.90;;;;;;5070324;28;20197;-61